createdAt,value
2017-08-26T00:01:32.304Z,17.62
2017-08-26T00:04:01.733Z,17.62
2017-08-26T00:06:31.179Z,17.61
2017-08-26T00:09:00.450Z,17.60
2017-08-26T00:11:30.138Z,17.61
2017-08-26T00:14:00.139Z,17.61
2017-08-26T00:16:29.648Z,17.63
2017-08-26T00:18:59.109Z,17.64
2017-08-26T00:21:28.575Z,17.65
2017-08-26T00:23:58.013Z,17.65
2017-08-26T00:26:27.444Z,17.65
2017-08-26T00:28:56.893Z,17.65
2017-08-26T00:31:26.366Z,17.67
2017-08-26T00:33:55.842Z,17.67
2017-08-26T00:36:25.121Z,17.69
2017-08-26T00:38:54.562Z,17.70
2017-08-26T00:41:24.001Z,17.72
2017-08-26T00:43:53.472Z,17.73
2017-08-26T00:46:22.909Z,17.76
2017-08-26T00:48:52.358Z,17.75
2017-08-26T00:51:21.813Z,17.75
2017-08-26T00:53:51.264Z,17.71
2017-08-26T00:56:20.702Z,17.67
2017-08-26T00:58:50.168Z,17.64
2017-08-26T01:01:19.617Z,17.62
2017-08-26T01:03:49.063Z,17.58
2017-08-26T01:06:18.492Z,17.54
2017-08-26T01:08:47.937Z,17.51
2017-08-26T01:11:17.396Z,17.49
2017-08-26T01:13:46.665Z,17.46
2017-08-26T01:16:16.101Z,17.42
2017-08-26T01:18:45.563Z,17.37
2017-08-26T01:21:15.003Z,17.32
2017-08-26T01:23:44.451Z,17.27
2017-08-26T01:26:13.884Z,17.25
2017-08-26T01:28:43.358Z,17.19
2017-08-26T01:31:12.788Z,17.14
2017-08-26T01:33:42.229Z,17.11
2017-08-26T01:36:11.488Z,17.07
2017-08-26T01:38:40.935Z,17.04
2017-08-26T01:41:10.392Z,17.05
2017-08-26T01:43:39.865Z,17.03
2017-08-26T01:46:09.318Z,17.02
2017-08-26T01:48:38.774Z,17.00
2017-08-26T01:51:08.196Z,16.99
2017-08-26T01:53:37.646Z,16.97
2017-08-26T01:56:07.181Z,16.96
2017-08-26T01:58:36.716Z,16.94
2017-08-26T02:01:06.152Z,16.92
2017-08-26T02:03:35.598Z,16.89
2017-08-26T02:06:05.048Z,16.85
2017-08-26T02:08:34.505Z,16.83
2017-08-26T02:11:03.964Z,16.83
2017-08-26T02:13:33.210Z,16.86
2017-08-26T02:16:02.664Z,16.87
2017-08-26T02:18:32.112Z,16.89
2017-08-26T02:21:01.572Z,16.88
2017-08-26T02:23:31.017Z,16.85
2017-08-26T02:26:00.482Z,16.80
2017-08-26T02:28:30.004Z,16.75
2017-08-26T02:30:59.270Z,16.72
2017-08-26T02:33:28.726Z,16.69
2017-08-26T02:35:58.187Z,16.69
2017-08-26T02:38:27.622Z,16.67
2017-08-26T02:40:57.073Z,16.65
2017-08-26T02:43:26.520Z,16.63
2017-08-26T02:45:55.965Z,16.60
2017-08-26T02:48:25.420Z,16.58
2017-08-26T02:50:54.864Z,16.57
2017-08-26T02:53:24.313Z,16.57
2017-08-26T02:55:53.765Z,16.60
2017-08-26T02:58:23.198Z,16.65
2017-08-26T03:00:52.648Z,16.67
2017-08-26T03:03:22.097Z,16.70
2017-08-26T03:05:51.549Z,16.71
2017-08-26T03:08:21.018Z,16.69
2017-08-26T03:10:50.477Z,16.67
2017-08-26T03:13:20.015Z,16.68
2017-08-26T03:15:49.448Z,16.70
2017-08-26T03:18:18.890Z,16.72
2017-08-26T03:20:48.355Z,16.74
2017-08-26T03:23:17.817Z,16.81
2017-08-26T03:25:47.517Z,16.82
2017-08-26T03:28:16.974Z,16.82
2017-08-26T03:30:46.421Z,16.83
2017-08-26T03:33:15.879Z,16.82
2017-08-26T03:35:45.525Z,16.82
2017-08-26T03:38:14.970Z,16.80
2017-08-26T03:40:44.421Z,16.78
2017-08-26T03:43:13.887Z,16.78
2017-08-26T03:45:43.344Z,16.79
2017-08-26T03:48:12.795Z,16.82
2017-08-26T03:50:42.251Z,16.85
2017-08-26T03:53:11.704Z,16.89
2017-08-26T03:55:41.783Z,16.93
2017-08-26T03:58:11.228Z,16.98
2017-08-26T04:00:40.713Z,17.03
2017-08-26T04:03:10.169Z,17.06
2017-08-26T04:05:39.831Z,17.09
2017-08-26T04:08:09.270Z,17.12
2017-08-26T04:10:38.708Z,17.14
2017-08-26T04:13:08.182Z,17.14
2017-08-26T04:15:37.451Z,17.16
2017-08-26T04:18:06.903Z,17.16
2017-08-26T04:20:36.352Z,17.19
2017-08-26T04:23:05.806Z,17.20
2017-08-26T04:25:35.256Z,17.24
2017-08-26T04:28:04.740Z,17.28
2017-08-26T04:30:34.184Z,17.32
2017-08-26T04:33:03.665Z,17.38
2017-08-26T04:35:33.130Z,17.48
2017-08-26T04:38:02.812Z,17.65
2017-08-26T04:40:32.255Z,17.71
2017-08-26T04:43:01.751Z,17.82
2017-08-26T04:45:32.117Z,17.84
2017-08-26T04:48:01.560Z,17.86
2017-08-26T04:50:31.004Z,17.90
2017-08-26T04:53:00.475Z,17.95
2017-08-26T04:55:29.928Z,17.97
2017-08-26T04:57:59.374Z,17.98
2017-08-26T05:00:28.936Z,18.02
2017-08-26T05:02:58.397Z,18.06
2017-08-26T05:05:28.117Z,18.12
2017-08-26T05:07:57.597Z,18.17
2017-08-26T05:10:27.161Z,18.23
2017-08-26T05:12:56.605Z,18.33
2017-08-26T05:15:26.061Z,18.43
2017-08-26T05:17:55.522Z,18.51
2017-08-26T05:20:24.964Z,18.54
2017-08-26T05:22:54.438Z,18.62
2017-08-26T05:25:23.977Z,18.68
2017-08-26T05:27:53.677Z,18.77
2017-08-26T05:30:23.162Z,18.81
2017-08-26T05:32:52.616Z,18.88
2017-08-26T05:35:22.149Z,18.94
2017-08-26T05:37:51.593Z,19.00
2017-08-26T05:40:21.082Z,19.07
2017-08-26T05:42:50.540Z,19.14
2017-08-26T05:45:19.885Z,19.18
2017-08-26T05:47:49.337Z,19.27
2017-08-26T05:50:18.651Z,19.43
2017-08-26T05:52:48.107Z,19.56
2017-08-26T05:55:17.662Z,19.67
2017-08-26T05:57:47.099Z,19.76
2017-08-26T06:00:16.632Z,19.85
2017-08-26T06:02:46.085Z,19.95
2017-08-26T06:05:15.671Z,20.06
2017-08-26T06:07:45.113Z,20.18
2017-08-26T06:10:14.621Z,20.24
2017-08-26T06:12:44.080Z,20.44
2017-08-26T06:15:13.593Z,20.49
2017-08-26T06:17:43.036Z,20.54
2017-08-26T06:20:12.351Z,20.60
2017-08-26T06:22:41.807Z,20.71
2017-08-26T06:25:11.322Z,20.74
2017-08-26T06:27:40.763Z,20.70
2017-08-26T06:30:10.280Z,20.69
2017-08-26T06:32:39.751Z,20.65
2017-08-26T06:35:09.284Z,20.73
2017-08-26T06:37:38.733Z,20.81
2017-08-26T06:40:08.240Z,20.94
2017-08-26T06:42:37.677Z,21.06
2017-08-26T06:45:07.220Z,21.13
2017-08-26T06:47:36.669Z,21.22
2017-08-26T06:50:06.172Z,21.28
2017-08-26T06:52:35.619Z,21.37
2017-08-26T06:55:05.116Z,21.48
2017-08-26T06:57:34.557Z,21.56
2017-08-26T07:00:04.109Z,21.73
2017-08-26T07:02:33.416Z,21.84
2017-08-26T07:05:02.927Z,21.92
2017-08-26T07:07:32.369Z,22.12
2017-08-26T07:10:01.875Z,22.21
2017-08-26T07:12:31.314Z,22.37
2017-08-26T07:15:00.773Z,22.48
2017-08-26T07:17:30.222Z,22.61
2017-08-26T07:19:59.681Z,22.77
2017-08-26T07:22:29.133Z,22.92
2017-08-26T07:24:58.592Z,23.06
2017-08-26T07:27:28.048Z,23.16
2017-08-26T07:29:57.497Z,23.30
2017-08-26T07:32:26.957Z,23.39
2017-08-26T07:34:56.429Z,23.49
2017-08-26T07:37:25.940Z,23.60
2017-08-26T07:39:55.397Z,23.75
2017-08-26T07:42:24.854Z,23.78
2017-08-26T07:44:54.305Z,23.88
2017-08-26T07:47:23.764Z,23.91
2017-08-26T07:49:53.225Z,24.08
2017-08-26T07:52:22.941Z,24.17
2017-08-26T07:54:52.485Z,24.26
2017-08-26T07:57:21.941Z,24.43
2017-08-26T07:59:51.417Z,24.56
2017-08-26T08:02:20.894Z,24.56
2017-08-26T08:04:50.353Z,24.67
2017-08-26T08:07:19.839Z,24.84
2017-08-26T08:09:49.300Z,24.90
2017-08-26T08:12:18.768Z,24.98
2017-08-26T08:14:48.224Z,25.01
2017-08-26T08:17:17.696Z,24.99
2017-08-26T08:19:47.149Z,25.08
2017-08-26T08:22:16.614Z,25.15
2017-08-26T08:24:46.107Z,25.28
2017-08-26T08:27:15.540Z,25.39
2017-08-26T08:29:45.005Z,25.53
2017-08-26T08:32:14.479Z,25.35
2017-08-26T08:34:43.922Z,25.65
2017-08-26T08:37:13.422Z,25.76
2017-08-26T08:39:42.975Z,25.89
2017-08-26T08:42:12.435Z,26.04
2017-08-26T08:44:41.905Z,26.11
2017-08-26T08:47:11.343Z,26.21
2017-08-26T08:49:40.799Z,26.30
2017-08-26T08:52:10.258Z,26.41
2017-08-26T08:54:39.775Z,26.56
2017-08-26T08:57:09.053Z,26.70
2017-08-26T08:59:38.525Z,26.83
2017-08-26T09:02:07.982Z,26.92
2017-08-26T09:04:37.445Z,27.07
2017-08-26T09:07:06.907Z,27.19
2017-08-26T09:09:36.376Z,27.25
2017-08-26T09:12:05.848Z,27.35
2017-08-26T09:14:35.297Z,27.53
2017-08-26T09:17:04.751Z,27.58
2017-08-26T09:19:34.213Z,27.70
2017-08-26T09:22:03.672Z,27.64
2017-08-26T09:24:33.130Z,27.73
2017-08-26T09:27:02.594Z,27.80
2017-08-26T09:29:32.074Z,27.82
2017-08-26T09:32:01.528Z,27.80
2017-08-26T09:34:30.984Z,27.99
2017-08-26T09:37:00.453Z,28.12
2017-08-26T09:39:29.896Z,28.22
2017-08-26T09:41:59.360Z,28.14
2017-08-26T09:44:28.805Z,28.38
2017-08-26T09:46:58.264Z,28.47
2017-08-26T09:49:27.525Z,28.66
2017-08-26T09:51:57.160Z,28.75
2017-08-26T09:54:26.640Z,28.74
2017-08-26T09:56:56.088Z,29.02
2017-08-26T09:59:25.560Z,28.97
2017-08-26T10:01:55.017Z,29.23
2017-08-26T10:04:24.482Z,29.39
2017-08-26T10:06:53.940Z,29.45
2017-08-26T10:09:23.401Z,29.48
2017-08-26T10:11:52.873Z,29.62
2017-08-26T10:14:22.359Z,29.75
2017-08-26T10:16:52.060Z,29.79
2017-08-26T10:19:21.570Z,29.83
2017-08-26T10:21:51.040Z,30.02
2017-08-26T10:24:20.537Z,30.16
2017-08-26T10:26:49.996Z,30.16
2017-08-26T10:29:19.448Z,30.28
2017-08-26T10:31:48.720Z,30.34
2017-08-26T10:34:17.988Z,30.48
2017-08-26T10:36:47.256Z,30.55
2017-08-26T10:39:16.515Z,30.69
2017-08-26T10:41:45.806Z,30.74
2017-08-26T10:44:15.104Z,30.75
2017-08-26T10:46:44.352Z,30.92
2017-08-26T10:49:15.389Z,31.05
2017-08-26T10:51:44.680Z,31.16
2017-08-26T10:54:14.149Z,31.26
2017-08-26T10:56:43.608Z,31.29
2017-08-26T10:59:13.146Z,31.35
2017-08-26T11:01:43.580Z,31.41
2017-08-26T11:04:13.031Z,31.57
2017-08-26T11:06:42.483Z,31.69
2017-08-26T11:09:11.949Z,31.79
2017-08-26T11:11:41.442Z,31.98
2017-08-26T11:14:10.900Z,32.04
2017-08-26T11:16:40.381Z,32.08
2017-08-26T11:19:09.833Z,32.10
2017-08-26T11:21:39.284Z,31.99
2017-08-26T11:24:08.545Z,31.68
2017-08-26T11:26:38.023Z,31.76
2017-08-26T11:29:07.468Z,31.61
2017-08-26T11:31:36.941Z,31.50
2017-08-26T11:34:06.385Z,31.52
2017-08-26T11:36:35.840Z,31.63
2017-08-26T11:39:04.724Z,31.28
2017-08-26T11:41:34.176Z,31.33
2017-08-26T11:44:03.627Z,31.00
2017-08-26T11:46:33.085Z,31.32
2017-08-26T11:49:02.545Z,31.48
2017-08-26T11:51:32.005Z,31.55
2017-08-26T11:54:01.466Z,31.66
2017-08-26T11:56:30.918Z,31.86
2017-08-26T11:59:00.359Z,31.79
2017-08-26T12:01:29.812Z,31.85
2017-08-26T12:03:59.280Z,31.96
2017-08-26T12:06:28.717Z,32.18
2017-08-26T12:08:58.167Z,32.11
2017-08-26T12:11:27.860Z,32.31
2017-08-26T12:13:57.315Z,32.05
2017-08-26T12:16:26.779Z,32.48
2017-08-26T12:18:56.265Z,32.77
2017-08-26T12:21:25.706Z,33.21
2017-08-26T12:23:55.192Z,34.22
2017-08-26T12:26:24.623Z,34.67
2017-08-26T12:28:54.058Z,35.67
2017-08-26T12:31:23.569Z,35.79
2017-08-26T12:33:53.026Z,36.54
2017-08-26T12:36:22.557Z,36.78
2017-08-26T12:38:52.004Z,37.16
2017-08-26T12:41:21.288Z,37.06
2017-08-26T12:43:50.712Z,37.00
2017-08-26T12:46:20.190Z,37.62
2017-08-26T12:48:49.632Z,38.05
2017-08-26T12:51:18.892Z,37.60
2017-08-26T12:53:48.143Z,38.35
2017-08-26T12:56:17.386Z,38.65
2017-08-26T12:58:46.622Z,38.46
2017-08-26T13:01:15.881Z,38.75
2017-08-26T13:03:45.111Z,39.39
2017-08-26T13:06:14.361Z,39.51
2017-08-26T13:08:43.604Z,39.63
2017-08-26T13:11:12.844Z,39.56
2017-08-26T13:13:42.091Z,38.87
2017-08-26T13:16:11.324Z,37.99
2017-08-26T13:18:40.577Z,38.57
2017-08-26T13:21:09.852Z,37.81
2017-08-26T13:23:39.109Z,39.10
2017-08-26T13:26:08.348Z,39.94
2017-08-26T13:28:37.584Z,39.81
2017-08-26T13:31:06.836Z,39.81
2017-08-26T13:33:36.090Z,40.27
2017-08-26T13:36:05.330Z,39.88
2017-08-26T13:38:34.635Z,40.76
2017-08-26T13:41:03.865Z,40.69
2017-08-26T13:43:33.124Z,41.58
2017-08-26T13:46:02.364Z,41.22
2017-08-26T13:48:31.604Z,41.27
2017-08-26T13:51:00.862Z,42.15
2017-08-26T13:53:30.106Z,42.34
2017-08-26T13:55:59.357Z,41.57
2017-08-26T13:58:28.593Z,42.06
2017-08-26T14:00:57.852Z,42.52
2017-08-26T14:03:27.119Z,41.72
2017-08-26T14:05:56.367Z,42.38
2017-08-26T14:08:25.616Z,41.75
2017-08-26T14:10:54.932Z,41.64
2017-08-26T14:13:24.175Z,42.22
2017-08-26T14:15:53.438Z,42.78
2017-08-26T14:18:22.692Z,42.92
2017-08-26T14:20:51.932Z,43.25
2017-08-26T14:23:21.192Z,43.45
2017-08-26T14:25:50.453Z,43.87
2017-08-26T14:28:19.721Z,43.59
2017-08-26T14:30:49.048Z,43.55
2017-08-26T14:33:18.302Z,43.13
2017-08-26T14:35:47.559Z,42.41
2017-08-26T14:38:16.794Z,42.90
2017-08-26T14:40:46.041Z,42.69
2017-08-26T14:43:15.332Z,42.80
2017-08-26T14:45:44.564Z,42.46
2017-08-26T14:48:13.905Z,43.30
2017-08-26T14:50:43.145Z,42.97
2017-08-26T14:53:12.405Z,43.24
2017-08-26T14:55:41.670Z,43.53
2017-08-26T14:58:10.931Z,43.22
2017-08-26T15:00:40.177Z,43.54
2017-08-26T15:03:09.424Z,43.51
2017-08-26T15:05:38.658Z,43.33
2017-08-26T15:08:07.910Z,43.07
2017-08-26T15:10:37.146Z,43.20
2017-08-26T15:13:06.397Z,42.94
2017-08-26T15:15:35.651Z,43.61
2017-08-26T15:18:04.880Z,42.46
2017-08-26T15:20:34.131Z,42.75
2017-08-26T15:23:03.392Z,42.93
2017-08-26T15:25:32.676Z,42.65
2017-08-26T15:28:01.943Z,40.99
2017-08-26T15:30:31.190Z,42.12
2017-08-26T15:33:00.443Z,42.16
2017-08-26T15:35:29.676Z,41.75
2017-08-26T15:37:58.748Z,41.92
2017-08-26T15:40:28.016Z,41.71
2017-08-26T15:42:57.249Z,42.02
2017-08-26T15:45:26.493Z,41.13
2017-08-26T15:47:55.740Z,41.44
2017-08-26T15:50:24.973Z,41.13
2017-08-26T15:52:54.234Z,41.25
2017-08-26T15:55:23.502Z,41.30
2017-08-26T15:57:52.739Z,41.04
2017-08-26T16:00:22.030Z,40.70
2017-08-26T16:02:51.279Z,40.75
2017-08-26T16:05:20.570Z,40.76
2017-08-26T16:07:49.829Z,40.55
2017-08-26T16:10:19.117Z,40.71
2017-08-26T16:12:48.352Z,39.11
2017-08-26T16:15:17.652Z,39.18
2017-08-26T16:17:46.881Z,39.26
2017-08-26T16:20:16.181Z,39.52
2017-08-26T16:22:45.431Z,39.25
2017-08-26T16:25:14.777Z,38.55
2017-08-26T16:27:44.026Z,38.41
2017-08-26T16:30:13.336Z,38.24
2017-08-26T16:32:43.344Z,38.24
2017-08-26T16:35:12.749Z,38.07
2017-08-26T16:37:41.811Z,37.61
2017-08-26T16:40:11.106Z,36.94
2017-08-26T16:42:40.337Z,36.67
2017-08-26T16:45:09.631Z,36.39
2017-08-26T16:47:38.865Z,36.12
2017-08-26T16:50:08.143Z,35.90
2017-08-26T16:52:37.386Z,35.63
2017-08-26T16:55:06.654Z,35.61
2017-08-26T16:57:35.906Z,35.52
2017-08-26T17:00:05.200Z,35.33
2017-08-26T17:02:34.420Z,35.07
2017-08-26T17:05:03.683Z,34.68
2017-08-26T17:07:32.965Z,34.29
2017-08-26T17:10:02.264Z,34.15
2017-08-26T17:12:31.517Z,33.65
2017-08-26T17:15:00.576Z,33.28
2017-08-26T17:17:29.636Z,32.96
2017-08-26T17:19:58.877Z,32.57
2017-08-26T17:22:28.135Z,32.20
2017-08-26T17:24:57.413Z,31.72
2017-08-26T17:27:26.648Z,31.38
2017-08-26T17:29:55.926Z,30.78
2017-08-26T17:32:25.160Z,30.08
2017-08-26T17:34:54.420Z,29.65
2017-08-26T17:37:23.668Z,29.43
2017-08-26T17:39:52.906Z,29.29
2017-08-26T17:42:22.161Z,28.83
2017-08-26T17:44:51.433Z,28.43
2017-08-26T17:47:20.691Z,28.18
2017-08-26T17:49:49.924Z,27.88
2017-08-26T17:52:19.208Z,27.55
2017-08-26T17:54:48.457Z,27.11
2017-08-26T17:57:17.724Z,26.72
2017-08-26T17:59:46.993Z,26.46
2017-08-26T18:02:16.247Z,26.26
2017-08-26T18:04:45.484Z,26.11
2017-08-26T18:07:14.741Z,25.94
2017-08-26T18:09:44.025Z,25.77
2017-08-26T18:12:13.300Z,25.63
2017-08-26T18:14:42.583Z,25.52
2017-08-26T18:17:11.813Z,25.39
2017-08-26T18:19:41.067Z,25.26
2017-08-26T18:22:10.319Z,25.15
2017-08-26T18:24:39.826Z,25.04
2017-08-26T18:27:09.071Z,24.88
2017-08-26T18:29:38.332Z,24.80
2017-08-26T18:32:07.583Z,24.65
2017-08-26T18:34:36.867Z,24.53
2017-08-26T18:37:06.131Z,24.43
2017-08-26T18:39:35.397Z,24.37
2017-08-26T18:42:04.649Z,24.27
2017-08-26T18:44:33.951Z,24.18
2017-08-26T18:47:03.192Z,24.08
2017-08-26T18:49:32.445Z,23.98
2017-08-26T18:52:01.694Z,23.85
2017-08-26T18:54:30.932Z,23.75
2017-08-26T18:57:00.192Z,23.68
2017-08-26T18:59:29.455Z,23.60
2017-08-26T19:01:58.709Z,23.49
2017-08-26T19:04:27.968Z,23.42
2017-08-26T19:06:57.359Z,23.33
2017-08-26T19:09:26.617Z,23.26
2017-08-26T19:11:56.413Z,23.17
2017-08-26T19:14:25.619Z,23.07
2017-08-26T19:16:54.882Z,23.00
2017-08-26T19:19:24.135Z,22.93
2017-08-26T19:21:53.386Z,22.86
2017-08-26T19:24:22.961Z,22.81
2017-08-26T19:26:52.618Z,22.77
2017-08-26T19:29:22.049Z,22.77
2017-08-26T19:31:51.456Z,22.76
2017-08-26T19:34:20.982Z,22.74
2017-08-26T19:36:50.784Z,22.70
2017-08-26T19:39:20.248Z,22.65
2017-08-26T19:41:49.735Z,22.61
2017-08-26T19:44:19.313Z,22.59
2017-08-26T19:46:48.876Z,22.56
2017-08-26T19:49:18.352Z,22.59
2017-08-26T19:51:47.929Z,22.60
2017-08-26T19:54:17.412Z,22.61
2017-08-26T19:56:47.162Z,22.63
2017-08-26T19:59:16.648Z,22.66
2017-08-26T20:01:46.412Z,22.67
2017-08-26T20:04:15.867Z,22.67
2017-08-26T20:06:45.320Z,22.68
2017-08-26T20:09:15.054Z,22.65
2017-08-26T20:11:44.658Z,22.67
2017-08-26T20:14:14.693Z,22.68
2017-08-26T20:16:45.252Z,22.65
2017-08-26T20:19:15.122Z,22.67
2017-08-26T20:21:44.552Z,22.72
2017-08-26T20:24:14.312Z,22.72
2017-08-26T20:26:43.777Z,22.71
2017-08-26T20:29:13.333Z,22.73
2017-08-26T20:31:42.909Z,22.73
2017-08-26T20:34:12.709Z,22.74
2017-08-26T20:36:41.864Z,22.77
2017-08-26T20:39:11.246Z,22.80
2017-08-26T20:41:40.496Z,22.82
2017-08-26T20:44:10.078Z,22.83
2017-08-26T20:46:39.349Z,22.86
2017-08-26T20:49:08.608Z,23.00
2017-08-26T20:51:37.913Z,22.98
2017-08-26T20:54:07.297Z,22.93
2017-08-26T20:56:36.569Z,22.86
2017-08-26T20:59:05.975Z,22.90
2017-08-26T21:01:35.357Z,22.97
2017-08-26T21:04:04.656Z,22.87
2017-08-26T21:06:34.014Z,22.82
2017-08-26T21:09:03.225Z,22.73
2017-08-26T21:11:32.887Z,22.64
2017-08-26T21:14:02.340Z,22.61
2017-08-26T21:16:31.931Z,22.55
2017-08-26T21:19:01.566Z,22.48
2017-08-26T21:21:32.374Z,22.43
2017-08-26T21:24:02.225Z,22.39
2017-08-26T21:26:31.868Z,22.36
2017-08-26T21:29:02.073Z,22.31
2017-08-26T21:31:32.634Z,22.28
2017-08-26T21:34:02.373Z,22.23
2017-08-26T21:36:32.104Z,22.20
2017-08-26T21:39:02.197Z,22.15
2017-08-26T21:41:32.277Z,22.13
2017-08-26T21:44:02.109Z,22.07
2017-08-26T21:46:31.627Z,21.99
2017-08-26T21:49:03.921Z,21.95
2017-08-26T21:51:33.770Z,21.93
2017-08-26T21:54:03.252Z,21.90
2017-08-26T21:56:32.570Z,21.84
2017-08-26T21:59:02.136Z,21.79
2017-08-26T22:01:32.749Z,21.76
2017-08-26T22:04:02.444Z,21.76
2017-08-26T22:06:31.988Z,21.74
2017-08-26T22:09:01.433Z,21.77
2017-08-26T22:11:30.945Z,21.85
2017-08-26T22:14:00.213Z,21.83
2017-08-26T22:16:30.887Z,21.81
2017-08-26T22:19:00.330Z,21.76
2017-08-26T22:21:29.790Z,21.72
2017-08-26T22:23:59.252Z,21.64
2017-08-26T22:26:28.721Z,21.58
2017-08-26T22:28:58.535Z,21.53
2017-08-26T22:31:28.221Z,21.51
2017-08-26T22:33:57.967Z,21.47
2017-08-26T22:36:27.723Z,21.46
2017-08-26T22:38:57.474Z,21.44
2017-08-26T22:41:26.960Z,21.39
2017-08-26T22:43:57.096Z,21.34
2017-08-26T22:46:26.684Z,21.26
2017-08-26T22:48:56.352Z,21.20
2017-08-26T22:51:25.633Z,21.16
2017-08-26T22:53:55.045Z,21.09
2017-08-26T22:56:25.041Z,21.05
2017-08-26T22:58:54.664Z,21.02
2017-08-26T23:01:24.200Z,20.97
2017-08-26T23:03:53.468Z,20.92
2017-08-26T23:06:23.998Z,20.89
2017-08-26T23:08:53.684Z,20.87
2017-08-26T23:11:23.262Z,20.85
2017-08-26T23:13:52.523Z,20.83
2017-08-26T23:16:22.276Z,20.77
2017-08-26T23:18:52.120Z,20.75
2017-08-26T23:21:21.943Z,20.71
2017-08-26T23:23:51.464Z,20.65
2017-08-26T23:26:21.044Z,20.65
2017-08-26T23:28:51.166Z,20.64
2017-08-26T23:31:20.725Z,20.59
2017-08-26T23:33:50.278Z,20.55
2017-08-26T23:36:19.724Z,20.49
2017-08-26T23:38:49.413Z,20.43
2017-08-26T23:41:18.901Z,20.42
2017-08-26T23:43:48.395Z,20.40
2017-08-26T23:46:17.850Z,20.38
2017-08-26T23:48:47.467Z,20.37
2017-08-26T23:51:16.935Z,20.31
2017-08-26T23:53:46.381Z,20.25
2017-08-26T23:56:15.844Z,20.18
2017-08-26T23:58:45.280Z,20.12
